Tyndall Air Force Base
KPAM : now visible

Airfield :











YOU CAN JOIN US ON...

 
LOGIN :

Register | Disclaimer

   EN    FR    IT 

 









Legend :    VFR   Marginal VFR   IFR   Intensive IFR   Very Intensive IFR
Visi :
Ceiling :
>= 8 km
>= 3000ft
5 to 8 km
1000 to 3000 ft
1500m to 5 km
500 to 1000 ft
800 to 1500m
200 to 500 ft
< 800m
< 200 ft
Symbols :   Thunderstorms  Fog  Heavy snow  Heavy precipitations  Wind > 20 kt






- Airport Elevation : 17 ft


KPAM - Tyndall Air Force Base

CURRENT METAR :
  • 212355Z AUTO 18006KT 10SM CLR 14/09 A3020 RMK AO2 SLP230 T01440092 10185 20144 55005 FZRANO $

EXPIRED METARs :
  • 212255Z AUTO 19008KT 10SM CLR 16/08 A3020 RMK AO2 SLP230 T01640084 FZRANO $
  • 212155Z AUTO 19010KT 10SM CLR 17/09 A3019 RMK AO2 SLP226 T01730092 FZRANO $
  • 212055Z AUTO 21010KT 10SM CLR 18/09 A3021 RMK AO2 SLP233 T01820093 57023 FZRANO $
  • 211955Z AUTO 23011KT 10SM CLR 19/07 A3023 RMK AO2 SLP240 T01900074 FZRANO $

TAF TAF KPAM
Valid from the 21 at 20:00 until the 23 at 02:00 UTC


212000Z 2120/2302 09006KT 9999 SKC QNH3020INS
BECMG 2201/2202 18009KT 9999 SKC QNH3005INS
BECMG 2220/2221 17012KT 9999 BKN030 QNH2990INS TX20/2120Z TN11/2212Z
KZJX FIR / North America



MET'MAP, your aeronautical weather chart ! - Copyright ORBIFLY December 2007 - Disclaimer

ORBIFLY MET'MAP TEAM :

Programming & Development : Alexandra Zaïnal
Original concept : Baudouin d'Aumeries
Technical & hardware support : Manuel Goepfert
Assistance : Marc-Olivier Méhu




SOURCES & CREDITS :

   NOAA       Earth
Advisory